McCarran International Airport
KLAS : now visible

Airfield :











YOU CAN JOIN US ON...

 
LOGIN :

Register | Disclaimer

   EN    FR    IT 

 









Legend :    VFR   Marginal VFR   IFR   Intensive IFR   Very Intensive IFR
Visi :
Ceiling :
>= 8 km
>= 3000ft
5 to 8 km
1000 to 3000 ft
1500m to 5 km
500 to 1000 ft
800 to 1500m
200 to 500 ft
< 800m
< 200 ft
Symbols :   Thunderstorms  Fog  Heavy snow  Heavy precipitations  Wind > 20 kt






- Airport Elevation : 2181 ft
- IATA code : LAS


KLAS - McCarran International

CURRENT METAR :
  • 260456Z 20006KT 10SM CLR 28/M01 A2980 RMK AO2 SLP068 T02781006 $

EXPIRED METARs :
  • 260356Z 23010KT 10SM CLR 28/00 A2978 RMK AO2 SLP061 T02830000 $
  • 260256Z 24012G19KT 10SM CLR 29/M01 A2976 RMK AO2 SLP055 T02941006 53006 $
  • 260156Z 23010G20KT 10SM CLR 31/M01 A2975 RMK AO2 SLP050 T03061006 $
  • 260056Z 25009KT 10SM FEW120 32/M01 A2974 RMK AO2 SLP047 T03171006 $

TAF KLAS
Valid from the 26 at 03:00 until the 27 at 06:00 UTC


260247Z 2603/2706 24012G20KT P6SM SKC
FM260700 20010KT P6SM SKC
FM261100 VRB05KT P6SM SKC
FM261700 06007KT P6SM SKC
FM262200 12008KT P6SM SKC
FM270400 22008KT P6SM SKC
KZLA FIR / North America



MET'MAP, your aeronautical weather chart ! - Copyright ORBIFLY December 2007 - Disclaimer

ORBIFLY MET'MAP TEAM :

Programming & Development : Alexandra Zaïnal
Original concept : Baudouin d'Aumeries
Technical & hardware support : Manuel Goepfert
Assistance : Marc-Olivier Méhu




SOURCES & CREDITS :

   NOAA       Earth
Advisory